createdAt,value
2022-09-15T00:04:53.066Z,12.923508700877926
2022-09-15T00:11:22.735Z,12.97717391304348
2022-09-15T00:17:51.730Z,12.925094063545151
2022-09-15T00:24:21.844Z,12.883896843645484
2022-09-15T00:33:46.406Z,12.89915408131271
2022-09-15T00:40:17.005Z,12.867333167851172
2022-09-15T00:46:58.881Z,12.787902382943143
2022-09-15T00:53:44.000Z,12.75094716764214
2022-09-15T01:00:14.176Z,12.706879049958193
2022-09-15T01:10:44.008Z,12.824183476170568
2022-09-15T01:19:23.015Z,12.94493820547659
2022-09-15T01:33:47.351Z,13.153061637750836
2022-09-15T01:40:16.806Z,13.117000026128764
2022-09-15T01:46:46.193Z,13.11489012855351
2022-09-15T01:53:15.386Z,13.173397653637124
2022-09-15T02:01:54.362Z,13.255607885660533
2022-09-15T02:08:23.898Z,13.263380539297659
2022-09-15T02:14:52.799Z,13.396279264214048
2022-09-15T02:21:22.070Z,13.41382668791806
2022-09-15T02:27:50.672Z,13.428398698787626
2022-09-15T02:36:54.501Z,13.48511183110368
2022-09-15T02:43:24.547Z,13.485027565844481
2022-09-15T02:51:25.524Z,13.530778375836121
2022-09-15T02:57:54.638Z,13.578759275710702
2022-09-15T03:04:24.162Z,13.521466738085284
2022-09-15T03:10:52.592Z,13.525977215719063
2022-09-15T03:22:07.174Z,13.538473949623745
2022-09-15T03:28:35.688Z,13.5608192673495
2022-09-15T03:35:04.910Z,13.570774979096988
2022-09-15T03:41:34.465Z,13.572768603678929
2022-09-15T03:48:03.323Z,13.602161501881271
2022-09-15T04:00:47.471Z,13.615811167433112
2022-09-15T04:07:17.200Z,13.636802362040134
2022-09-15T04:15:53.182Z,13.646648986204013
2022-09-15T04:22:22.936Z,13.686183763586957
2022-09-15T04:28:50.987Z,13.676015755643812
2022-09-15T04:41:29.685Z,13.669503814799329
2022-09-15T04:47:57.384Z,13.686407164506686
2022-09-15T04:54:26.015Z,13.709127429974918
2022-09-15T05:00:55.742Z,13.69153297449833
2022-09-15T05:10:13.932Z,13.715333664297658
2022-09-15T05:16:42.466Z,13.700279577759197
2022-09-15T05:23:11.244Z,13.775740097198996
2022-09-15T05:29:40.522Z,13.794141278219064
2022-09-15T05:42:02.134Z,13.856472094481607
2022-09-15T05:48:31.192Z,13.900041152801004
2022-09-15T05:55:01.335Z,13.984067987040135
2022-09-15T06:01:32.362Z,14.04197977633779
2022-09-15T06:08:02.393Z,14.15179635242475
2022-09-15T06:16:22.729Z,14.322655596780937
2022-09-15T06:22:55.798Z,14.318648097826088
2022-09-15T06:35:08.749Z,14.447033079013377
2022-09-15T06:41:58.754Z,14.505018028846155
2022-09-15T06:48:30.763Z,14.52716803407191
2022-09-15T06:55:08.888Z,14.50035992370401
2022-09-15T07:01:41.462Z,14.508160665760869
2022-09-15T07:08:13.063Z,14.614428302675583
2022-09-15T07:22:35.064Z,14.936747491638794
2022-09-15T07:29:06.945Z,15.014685017767556
2022-09-15T07:35:36.186Z,14.989595526755854
2022-09-15T07:42:06.642Z,14.991276259406355
2022-09-15T07:48:36.600Z,15.18337100229933
2022-09-15T07:55:05.893Z,15.575465091973243
2022-09-15T08:01:35.892Z,15.850279577759197
2022-09-15T08:08:03.648Z,15.96820456208194
2022-09-15T08:14:33.191Z,16.41278545673077
2022-09-15T08:21:05.080Z,16.420385007316053
2022-09-15T08:27:33.568Z,16.371273385242475
2022-09-15T08:34:02.600Z,17.04779211956522
2022-09-15T08:40:30.900Z,16.783430445234114
2022-09-15T08:46:59.281Z,16.517977895066892
2022-09-15T08:57:16.958Z,16.82068091555184
2022-09-15T09:03:46.939Z,16.360147758152177
2022-09-15T09:10:17.018Z,15.423001802884615
2022-09-15T09:16:47.305Z,14.8194202027592
2022-09-15T09:23:22.674Z,14.706774534908025
2022-09-15T09:29:51.531Z,14.664282634824415
2022-09-15T09:36:20.924Z,14.80603835702341
2022-09-15T09:48:36.927Z,15.118250287416389
2022-09-15T09:55:04.175Z,15.239396294941473
2022-09-15T10:01:31.664Z,15.22611112562709
2022-09-15T10:08:00.345Z,15.430717626463212
2022-09-15T10:14:29.114Z,15.812034254807694
2022-09-15T10:20:58.692Z,15.895776938754182
2022-09-15T10:27:28.165Z,15.880934495192308
2022-09-15T10:34:06.623Z,15.968851248954849
2022-09-15T10:40:36.639Z,15.865463654891306
2022-09-15T10:47:15.369Z,15.921783549331103
2022-09-15T10:53:49.277Z,16.094148463628763
2022-09-15T11:01:13.303Z,16.78190256584448
2022-09-15T11:07:48.052Z,17.042444868311037
2022-09-15T11:14:19.156Z,17.732282739339468
2022-09-15T11:20:54.375Z,17.255100334448162
2022-09-15T11:27:32.285Z,15.785425376254178
2022-09-15T11:34:30.832Z,15.22023150083612
2022-09-15T11:41:00.111Z,14.982279473244148
2022-09-15T11:47:29.510Z,15.003607075668898
2022-09-15T11:54:01.088Z,15.061117135242476
2022-09-15T12:00:35.840Z,15.247916884406353
2022-09-15T12:10:32.213Z,15.889032451923079
2022-09-15T12:17:01.224Z,16.329626097408024
2022-09-15T12:27:00.320Z,16.929408575459863
2022-09-15T12:33:30.019Z,17.311429373954848
2022-09-15T12:39:59.327Z,16.60334056229097
2022-09-15T12:46:28.350Z,16.62979789402174
2022-09-15T12:52:58.095Z,16.491303694607026
2022-09-15T13:02:53.286Z,16.05546091137124
2022-09-15T13:09:22.532Z,16.068303198160535
2022-09-15T13:15:50.762Z,15.65394283026756
2022-09-15T13:22:49.139Z,15.526566419314381
2022-09-15T13:29:18.583Z,15.428951975334451
2022-09-15T13:35:46.652Z,15.369054400083611
2022-09-15T13:42:15.332Z,15.418931594899668
2022-09-15T13:51:04.555Z,15.604512437290971
2022-09-15T14:04:31.295Z,15.950143054974916
2022-09-15T14:16:34.719Z,15.724295829849499
2022-09-15T14:27:01.819Z,15.7022327027592
2022-09-15T14:33:34.308Z,15.580350517349496
2022-09-15T14:40:06.857Z,15.300841346153847
2022-09-15T14:46:56.450Z,15.186254964464885
2022-09-15T14:53:25.134Z,15.329153820025084
2022-09-15T15:02:30.157Z,15.5264370819398
2022-09-15T15:08:59.257Z,15.396423625627088
2022-09-15T15:15:28.046Z,15.356587714255852
2022-09-15T15:21:56.085Z,15.341640755643816
2022-09-15T15:28:33.629Z,15.331980952132106
2022-09-15T15:36:38.035Z,15.300007185409699
2022-09-15T15:43:07.936Z,15.27717979201505
2022-09-15T15:49:46.151Z,15.304935070025087
2022-09-15T16:00:38.285Z,15.282002508361206
2022-09-15T16:07:08.279Z,15.25215627612876
2022-09-15T16:13:38.248Z,15.128478391513378
2022-09-15T16:26:34.274Z,14.77672645798495
2022-09-15T16:33:04.044Z,14.51888456312709
2022-09-15T16:39:32.999Z,14.44568679452341
2022-09-15T16:46:02.513Z,14.341441523829435
2022-09-15T16:52:31.566Z,14.29318235263378
2022-09-15T16:59:00.984Z,14.284623876463211
2022-09-15T17:05:29.026Z,14.189888168896319
2022-09-15T17:11:57.479Z,14.16955541910535
2022-09-15T17:18:26.762Z,14.178381715091973
2022-09-15T17:25:02.795Z,14.158664297658863
2022-09-15T17:31:30.492Z,14.09445351693144
2022-09-15T17:37:59.369Z,14.068978626672243
2022-09-15T17:44:28.783Z,14.02315204326923
2022-09-15T17:50:57.778Z,13.960439093854516
2022-09-15T17:57:26.382Z,13.8549527069398
2022-09-15T18:03:54.992Z,13.775906014841137
2022-09-15T18:10:25.321Z,13.715212818770903
2022-09-15T18:16:53.581Z,13.6248118729097
2022-09-15T18:23:28.364Z,13.59762489548495
2022-09-15T18:30:00.401Z,13.520002874163879
2022-09-15T18:45:23.726Z,13.433775998118731
2022-09-15T18:51:52.193Z,13.429741717182274
2022-09-15T18:58:21.479Z,13.378040081521739
2022-09-15T19:04:49.348Z,13.262394178511705
2022-09-15T19:11:17.488Z,13.224012332775919
2022-09-15T19:17:45.081Z,13.119283026755854
2022-09-15T19:24:18.372Z,13.047417171822742
2022-09-15T19:30:46.022Z,13.033026755852845
2022-09-15T19:37:18.313Z,12.961634484740802
2022-09-15T19:43:46.954Z,12.99352855873746
2022-09-15T19:50:15.507Z,12.922866586538463
2022-09-15T19:56:46.123Z,12.921461512332778
2022-09-15T20:03:21.486Z,12.943196070234114
2022-09-15T20:09:54.431Z,12.97205332880435
2022-09-15T20:16:31.458Z,12.921827968227426
2022-09-15T20:23:16.334Z,12.961392140468227
2022-09-15T20:30:00.579Z,12.89751972721572
2022-09-15T20:36:37.289Z,12.88572716346154
2022-09-15T20:43:17.074Z,12.859152905518394
2022-09-15T20:49:49.614Z,12.794313728051838
2022-09-15T20:56:27.295Z,12.77209644126254
2022-09-15T21:03:04.550Z,12.781658261914716
2022-09-15T21:15:54.092Z,12.687959866220737
2022-09-15T21:22:30.702Z,12.627960388795985
2022-09-15T21:29:05.976Z,12.550024169105352
2022-09-15T21:35:33.896Z,12.580244042642141
2022-09-15T21:42:01.574Z,12.505091842600335
2022-09-15T21:48:28.606Z,12.386014579849498
2022-09-15T21:54:56.498Z,12.269921875
2022-09-15T22:01:24.539Z,12.19347891408863
2022-09-15T22:07:52.480Z,12.21842404368729
2022-09-15T22:14:20.734Z,12.144305889423077
2022-09-15T22:20:49.637Z,12.054065635451506
2022-09-15T22:27:26.646Z,12.078548939172242
2022-09-15T22:33:54.450Z,12.04126450146321
2022-09-15T22:40:23.504Z,11.91503710284281
2022-09-15T22:46:53.526Z,11.952467208403009
2022-09-15T22:53:23.769Z,11.911215118102005
2022-09-15T22:59:52.497Z,11.89075237771739
2022-09-15T23:06:22.343Z,11.917047711120402
2022-09-15T23:12:50.795Z,11.843855821488294
2022-09-15T23:19:19.936Z,11.850781903219064
2022-09-15T23:25:55.476Z,11.834693117683946
2022-09-15T23:32:24.218Z,11.846479149247491
2022-09-15T23:38:53.072Z,11.828122387123747
2022-09-15T23:45:22.253Z,11.763778349707358
2022-09-15T23:52:21.009Z,11.72230416492475
2022-09-15T23:58:49.858Z,11.723355847617055
